Date,TemperatureHighF,TemperatureAvgF,TemperatureLowF,DewpointHighF,DewpointAvgF,DewpointLowF,HumidityHigh,HumidityAvg,HumidityLow,PressureMaxIn,PressureMinIn,WindSpeedMaxMPH,WindSpeedAvgMPH,GustSpeedMaxMPH,PrecipitationSumIn
2013-9-1,82.1,72.8,66.6,74.0,69.7,66.0,99,90,65,29.84,29.75,5,1,12,0.13
2013-9-2,72.5,69.3,66.8,72.0,69.0,66.0,99,99,97,29.83,29.68,2,0,5,0.49
2013-9-3,74.0,67.5,59.8,68.0,64.6,58.0,100,91,75,29.77,29.67,5,1,7,0.02
2013-9-4,76.4,65.8,56.6,61.0,57.4,53.0,97,76,46,29.87,29.76,7,2,12,0.00
2013-9-5,67.9,59.6,48.5,58.0,49.5,41.0,95,72,40,30.14,29.83,9,1,11,0.00
2013-9-6,67.9,54.7,42.2,49.0,43.6,40.0,92,69,41,30.23,30.05,5,1,9,0.00
2013-9-7,74.1,59.5,46.4,56.0,50.7,45.0,96,75,44,30.05,29.81,5,1,8,0.01
2013-9-8,65.2,58.9,48.5,59.0,48.5,41.0,86,69,49,30.06,29.71,9,2,23,0.00
2013-9-9,68.4,55.1,42.2,50.0,45.0,40.0,92,71,42,30.21,30.06,7,1,9,0.00
2013-9-10,71.9,61.6,52.3,69.0,59.6,49.0,98,93,86,30.10,29.99,3,0,6,0.09
2013-9-11,91.9,77.7,65.7,77.0,71.5,65.0,99,83,56,30.03,29.88,4,1,18,0.34
2013-9-12,78.4,69.2,65.4,74.0,67.5,65.0,99,94,81,29.88,29.62,4,1,8,0.72
2013-9-13,70.9,63.7,55.7,66.0,60.9,52.0,99,90,77,29.75,29.57,10,1,15,0.15
2013-9-14,63.6,56.1,49.0,54.0,51.3,48.0,95,84,69,30.02,29.74,8,2,16,0.00
2013-9-15,69.6,56.4,45.4,55.0,49.4,45.0,98,79,46,30.13,30.01,6,1,9,0.00
2013-9-16,62.9,54.1,41.9,56.0,48.1,36.0,97,81,62,30.25,29.98,7,1,18,0.03
2013-9-17,64.0,49.5,36.2,48.0,40.4,34.0,94,73,46,30.42,30.26,4,1,7,0.00
2013-9-18,72.6,55.6,39.5,50.0,45.1,39.0,98,72,34,30.31,30.11,4,1,8,0.00
2013-9-19,76.8,61.6,48.3,59.0,51.7,46.0,93,73,44,30.11,30.00,5,1,6,0.00
2013-9-20,76.6,61.9,48.6,60.0,54.6,48.0,97,79,47,30.08,29.97,4,1,8,0.00
2013-9-21,72.2,61.1,48.4,63.0,56.6,48.0,99,86,61,29.98,29.67,8,2,17,0.01
2013-9-22,66.8,60.1,48.3,64.0,54.3,42.0,97,82,62,29.81,29.56,8,2,14,0.54
2013-9-23,56.4,48.5,43.7,43.0,40.5,38.0,85,74,59,29.99,29.81,13,2,18,0.00
2013-9-24,63.1,52.1,44.0,46.0,42.2,39.0,86,70,48,29.97,29.82,11,2,19,0.00
2013-9-25,64.9,54.9,46.1,53.0,47.6,43.0,90,77,60,29.98,29.86,5,1,9,0.00
2013-9-26,69.2,55.4,45.1,53.0,47.9,44.0,95,78,53,30.13,29.98,4,1,8,0.00
2013-9-27,67.8,57.1,52.3,56.0,51.3,49.0,91,82,58,30.25,30.13,3,1,7,0.00
2013-9-28,74.0,59.0,47.0,58.0,51.7,46.0,97,79,46,30.33,30.25,6,1,6,0.00
2013-9-29,69.6,55.4,44.7,55.0,49.6,44.0,98,83,50,30.25,30.09,4,1,8,0.01
2013-9-30,72.2,54.3,39.9,57.0,48.3,39.0,98,83,46,30.11,29.95,3,1,8,0.00